createdAt,value
2017-04-01T00:01:00.212Z,45.48
2017-04-01T00:02:10.454Z,45.48
2017-04-01T00:03:20.073Z,45.1
2017-04-01T00:04:29.703Z,45.2
2017-04-01T00:05:39.636Z,45.58
2017-04-01T00:06:49.572Z,45.58
2017-04-01T00:07:59.812Z,45.39
2017-04-01T00:09:09.749Z,45.48
2017-04-01T00:10:19.998Z,45.2
2017-04-01T00:11:30.252Z,45.2
2017-04-01T00:12:40.183Z,45.48
2017-04-01T00:13:50.431Z,45.39
2017-04-01T00:15:00.679Z,44.71
2017-04-01T00:16:10.928Z,45.58
2017-04-01T00:17:21.171Z,44.52
2017-04-01T00:18:31.101Z,44.52
2017-04-01T00:19:41.338Z,45.29
2017-04-01T00:20:50.638Z,44.62
2017-04-01T00:22:00.570Z,45.29
2017-04-01T00:23:10.507Z,44.52
2017-04-01T00:24:20.122Z,45.2
2017-04-01T00:25:30.362Z,45
2017-04-01T00:26:40.293Z,45.1
2017-04-01T00:27:50.227Z,44.71
2017-04-01T00:29:00.158Z,44.9
2017-04-01T00:30:10.400Z,44.9
2017-04-01T00:31:20.323Z,45
2017-04-01T00:32:29.621Z,44.62
2017-04-01T00:33:39.241Z,44.71
2017-04-01T00:34:48.859Z,44.71
2017-04-01T00:35:58.785Z,44.9
2017-04-01T00:37:09.022Z,44.42
2017-04-01T00:38:19.275Z,44.62
2017-04-01T00:39:29.550Z,44.81
2017-04-01T00:40:39.172Z,44.81
2017-04-01T00:41:49.111Z,44.81
2017-04-01T00:42:59.354Z,44.62
2017-04-01T00:44:09.594Z,44.81
2017-04-01T00:45:19.837Z,44.9
2017-04-01T00:46:29.773Z,44.62
2017-04-01T00:47:40.015Z,44.81
2017-04-01T00:48:49.937Z,45
2017-04-01T00:50:00.179Z,44.42
2017-04-01T00:51:10.113Z,44.71
2017-04-01T00:52:20.353Z,44.62
2017-04-01T00:53:30.593Z,44.81
2017-04-01T00:54:40.204Z,44.71
2017-04-01T00:55:50.451Z,44.81
2017-04-01T00:57:00.378Z,44.81
2017-04-01T00:58:10.313Z,44.52
2017-04-01T00:59:20.237Z,44.62
2017-04-01T01:00:30.163Z,44.42
2017-04-01T01:01:40.408Z,44.52
2017-04-01T01:02:50.337Z,44.52
2017-04-01T01:04:00.272Z,44.81
2017-04-01T01:05:09.900Z,44.52
2017-04-01T01:06:19.827Z,44.42
2017-04-01T01:07:30.079Z,44.81
2017-04-01T01:08:40.011Z,44.52
2017-04-01T01:09:49.634Z,44.52
2017-04-01T01:10:59.906Z,44.04
2017-04-01T01:12:10.146Z,44.52
2017-04-01T01:13:20.380Z,44.42
2017-04-01T01:14:30.619Z,44.62
2017-04-01T01:15:40.867Z,44.42
2017-04-01T01:16:51.123Z,44.13
2017-04-01T01:18:01.377Z,44.42
2017-04-01T01:19:10.990Z,44.62
2017-04-01T01:20:21.228Z,44.42
2017-04-01T01:21:31.482Z,44.32
2017-04-01T01:22:41.104Z,44.42
2017-04-01T01:23:51.032Z,44.32
2017-04-01T01:25:01.273Z,44.32
2017-04-01T01:26:11.512Z,44.62
2017-04-01T01:27:21.432Z,44.32
2017-04-01T01:28:31.671Z,44.42
2017-04-01T01:29:41.598Z,44.32
2017-04-01T01:30:51.851Z,44.71
2017-04-01T01:32:02.099Z,44.71
2017-04-01T01:33:12.342Z,44.71
2017-04-01T01:34:22.590Z,44.32
2017-04-01T01:35:32.522Z,44.42
2017-04-01T01:36:42.457Z,44.71
2017-04-01T01:37:52.701Z,44.81
2017-04-01T01:39:02.942Z,44.71
2017-04-01T01:40:13.197Z,44.13
2017-04-01T01:41:23.122Z,44.81
2017-04-01T01:42:32.741Z,44.23
2017-04-01T01:43:42.668Z,44.81
2017-04-01T01:44:52.603Z,44.9
2017-04-01T01:46:02.840Z,44.71
2017-04-01T01:47:13.080Z,44.23
2017-04-01T01:48:23.323Z,44.9
2017-04-01T01:49:33.260Z,44.81
2017-04-01T01:50:43.498Z,44.71
2017-04-01T01:51:53.433Z,44.23
2017-04-01T01:53:03.677Z,44.81
2017-04-01T01:54:13.920Z,44.13
2017-04-01T01:55:24.191Z,44.23
2017-04-01T01:56:33.801Z,44.71
2017-04-01T01:57:44.040Z,44.81
2017-04-01T01:58:54.283Z,44.62
2017-04-01T02:00:04.527Z,44.42
2017-04-01T02:01:14.458Z,44.52
2017-04-01T02:02:24.417Z,44.23
2017-04-01T02:03:34.350Z,44.71
2017-04-01T02:04:43.973Z,44.71
2017-04-01T02:05:53.913Z,44.23
2017-04-01T02:07:03.839Z,44.23
2017-04-01T02:08:13.766Z,44.81
2017-04-01T02:09:24.009Z,44.13
2017-04-01T02:10:33.634Z,44.13
2017-04-01T02:11:43.875Z,44.32
2017-04-01T02:12:53.490Z,44.13
2017-04-01T02:14:03.420Z,44.23
2017-04-01T02:15:13.668Z,44.42
2017-04-01T02:16:23.599Z,44.13
2017-04-01T02:17:33.845Z,44.23
2017-04-01T02:18:44.086Z,44.23
2017-04-01T02:19:54.010Z,44.71
2017-04-01T02:21:04.252Z,44.9
2017-04-01T02:22:13.871Z,44.42
2017-04-01T02:23:23.494Z,44.42
2017-04-01T02:24:33.766Z,44.81
2017-04-01T02:25:43.716Z,44.04
2017-04-01T02:26:53.656Z,44.32
2017-04-01T02:28:03.267Z,44.32
2017-04-01T02:29:13.233Z,44.13
2017-04-01T02:30:23.482Z,43.94
2017-04-01T02:31:33.105Z,44.52
2017-04-01T02:32:43.349Z,44.23
2017-04-01T02:33:53.607Z,44.13
2017-04-01T02:35:03.860Z,44.42
2017-04-01T02:36:13.791Z,44.49
2017-04-01T02:37:24.040Z,44.42
2017-04-01T02:38:33.976Z,44.42
2017-04-01T02:39:43.912Z,44.13
2017-04-01T02:40:53.557Z,44.4
2017-04-01T02:42:03.173Z,44.52
2017-04-01T02:43:13.412Z,44.52
2017-04-01T02:44:23.650Z,44.49
2017-04-01T02:45:33.889Z,44.32
2017-04-01T02:46:43.821Z,44.32
2017-04-01T02:47:54.061Z,44.42
2017-04-01T02:49:03.673Z,44.31
2017-04-01T02:50:13.911Z,44.52
2017-04-01T02:51:24.153Z,44.52
2017-04-01T02:52:34.082Z,44.32
2017-04-01T02:53:44.324Z,44.23
2017-04-01T02:54:54.573Z,43.75
2017-04-01T02:56:04.509Z,44.42
2017-04-01T02:57:14.788Z,44.49
2017-04-01T02:58:25.038Z,44.42
2017-04-01T02:59:34.965Z,44.42
2017-04-01T03:00:45.202Z,44.23
2017-04-01T03:01:55.128Z,44.49
2017-04-01T03:03:05.373Z,43.94
2017-04-01T03:04:15.322Z,44.42
2017-04-01T03:05:25.260Z,44.04
2017-04-01T03:06:35.186Z,44.52
2017-04-01T03:07:45.434Z,44.52
2017-04-01T03:08:55.705Z,44.04
2017-04-01T03:10:05.638Z,44.23
2017-04-01T03:11:15.565Z,44.23
2017-04-01T03:12:25.494Z,44.32
2017-04-01T03:13:35.740Z,44.04
2017-04-01T03:14:45.982Z,44.52
2017-04-01T03:15:55.909Z,43.85
2017-04-01T03:17:05.523Z,44.04
2017-04-01T03:18:15.769Z,44.04
2017-04-01T03:19:25.380Z,44.31
2017-04-01T03:20:35.321Z,43.54
2017-04-01T03:21:45.244Z,42.96
2017-04-01T03:22:55.484Z,43.24
2017-04-01T03:24:05.726Z,43.54
2017-04-01T03:25:15.340Z,43.44
2017-04-01T03:26:25.276Z,43.46
2017-04-01T03:27:35.520Z,43.73
2017-04-01T03:28:45.132Z,43.92
2017-04-01T03:29:55.064Z,43.85
2017-04-01T03:31:04.994Z,43.65
2017-04-01T03:32:14.931Z,43.54
2017-04-01T03:33:25.188Z,43.73
2017-04-01T03:34:35.433Z,44.31
2017-04-01T03:35:45.366Z,44.02
2017-04-01T03:36:55.610Z,43.92
2017-04-01T03:38:05.850Z,44.11
2017-04-01T03:39:15.780Z,44.02
2017-04-01T03:40:25.398Z,44.31
2017-04-01T03:41:35.635Z,43.54
2017-04-01T03:42:45.567Z,43.54
2017-04-01T03:43:55.814Z,44.21
2017-04-01T03:45:06.053Z,44.21
2017-04-01T03:46:16.288Z,43.55
2017-04-01T03:47:26.218Z,43.92
2017-04-01T03:48:35.835Z,43.92
2017-04-01T03:49:45.449Z,44.11
2017-04-01T03:50:55.692Z,43.73
2017-04-01T03:52:05.933Z,43.92
2017-04-01T03:53:16.177Z,44.02
2017-04-01T03:54:26.416Z,44.02
2017-04-01T03:55:36.351Z,44.11
2017-04-01T03:56:45.968Z,44.21
2017-04-01T03:57:56.213Z,43.92
2017-04-01T03:59:06.147Z,44.11
2017-04-01T04:00:16.390Z,44.11
2017-04-01T04:01:26.324Z,44.21
2017-04-01T04:02:36.567Z,43.73
2017-04-01T04:03:46.833Z,44.21
2017-04-01T04:04:56.760Z,44.21
2017-04-01T04:06:06.683Z,44.4
2017-04-01T04:07:16.926Z,43.63
2017-04-01T04:08:27.174Z,43.92
2017-04-01T04:09:37.103Z,43.54
2017-04-01T04:10:46.723Z,44.4
2017-04-01T04:11:56.654Z,43.82
2017-04-01T04:13:06.891Z,43.63
2017-04-01T04:14:16.825Z,44.02
2017-04-01T04:15:27.068Z,43.92
2017-04-01T04:16:37.311Z,44.21
2017-04-01T04:17:47.562Z,43.73
2017-04-01T04:18:57.489Z,43.92
2017-04-01T04:20:07.731Z,43.82
2017-04-01T04:21:17.980Z,43.92
2017-04-01T04:22:27.909Z,43.82
2017-04-01T04:23:37.528Z,43.92
2017-04-01T04:24:47.139Z,43.82
2017-04-01T04:25:56.440Z,43.37
2017-04-01T04:27:06.365Z,43.54
2017-04-01T04:28:16.295Z,43.73
2017-04-01T04:29:26.554Z,43.54
2017-04-01T04:30:36.794Z,43.82
2017-04-01T04:31:47.047Z,43.73
2017-04-01T04:32:56.979Z,43.73
2017-04-01T04:34:07.224Z,43.82
2017-04-01T04:35:17.150Z,43.54
2017-04-01T04:36:27.450Z,43.44
2017-04-01T04:37:37.689Z,43.34
2017-04-01T04:38:47.930Z,43.54
2017-04-01T04:39:58.167Z,43.24
2017-04-01T04:41:07.487Z,43.82
2017-04-01T04:42:17.733Z,43.82
2017-04-01T04:43:27.976Z,43.44
2017-04-01T04:44:37.903Z,43.24
2017-04-01T04:45:47.525Z,43.34
2017-04-01T04:46:57.773Z,43.63
2017-04-01T04:48:08.018Z,43.82
2017-04-01T04:49:18.260Z,43.34
2017-04-01T04:50:28.187Z,43.73
2017-04-01T04:51:38.429Z,43.82
2017-04-01T04:52:48.663Z,43.44
2017-04-01T04:53:58.905Z,43.54
2017-04-01T04:55:09.149Z,43.44
2017-04-01T04:56:19.074Z,43.54
2017-04-01T04:57:29.314Z,43.24
2017-04-01T04:58:39.557Z,43.54
2017-04-01T04:59:49.481Z,43.63
2017-04-01T05:00:59.417Z,43.54
2017-04-01T05:02:09.346Z,43.44
2017-04-01T05:03:19.271Z,43.44
2017-04-01T05:04:29.511Z,43.63
2017-04-01T05:05:39.446Z,43.34
2017-04-01T05:06:49.369Z,43.54
2017-04-01T05:07:58.359Z,43.63
2017-04-01T05:09:08.599Z,43.54
2017-04-01T05:10:18.834Z,43.44
2017-04-01T05:11:28.135Z,43.54
2017-04-01T05:12:38.062Z,43.24
2017-04-01T05:13:47.995Z,43.24
2017-04-01T05:14:57.920Z,43.54
2017-04-01T05:16:08.162Z,43.34
2017-04-01T05:17:18.424Z,43.34
2017-04-01T05:18:28.669Z,43.15
2017-04-01T05:19:38.908Z,43.34
2017-04-01T05:20:48.523Z,43.44
2017-04-01T05:21:58.759Z,43.05
2017-04-01T05:23:08.685Z,43.05
2017-04-01T05:24:18.612Z,43.05
2017-04-01T05:25:28.542Z,43.15
2017-04-01T05:26:38.469Z,42.96
2017-04-01T05:27:48.082Z,43.24
2017-04-01T05:28:58.328Z,43.34
2017-04-01T05:30:07.941Z,43.34
2017-04-01T05:31:18.189Z,43.54
2017-04-01T05:32:28.117Z,42.96
2017-04-01T05:33:38.358Z,43.34
2017-04-01T05:34:48.296Z,43.44
2017-04-01T05:35:58.229Z,43.34
2017-04-01T05:37:08.472Z,43.34
2017-04-01T05:38:17.774Z,43.44
2017-04-01T05:39:27.388Z,43.24
2017-04-01T05:40:37.315Z,43.24
2017-04-01T05:41:47.236Z,43.44
2017-04-01T05:42:57.483Z,43.05
2017-04-01T05:44:07.423Z,42.96
2017-04-01T05:45:17.666Z,43.05
2017-04-01T05:46:27.918Z,43.24
2017-04-01T05:47:38.166Z,43.15
2017-04-01T05:48:48.090Z,42.96
2017-04-01T05:49:58.014Z,42.86
2017-04-01T05:51:07.319Z,43.15
2017-04-01T05:52:17.555Z,43.15
2017-04-01T05:53:27.169Z,43.34
2017-04-01T05:54:37.108Z,43.34
2017-04-01T05:55:47.040Z,43.15
2017-04-01T05:56:56.970Z,42.96
2017-04-01T05:58:06.611Z,43.24
2017-04-01T05:59:16.539Z,43.44
2017-04-01T06:00:26.782Z,43.15
2017-04-01T06:01:37.025Z,43.44
2017-04-01T06:02:47.278Z,43.44
2017-04-01T06:03:57.512Z,43.15
2017-04-01T06:05:07.755Z,43.34
2017-04-01T06:06:17.689Z,43.24
2017-04-01T06:07:27.621Z,43.05
2017-04-01T06:08:37.544Z,43.24
2017-04-01T06:09:47.470Z,43.15
2017-04-01T06:10:57.716Z,43.24
2017-04-01T06:12:07.647Z,42.96
2017-04-01T06:13:17.261Z,43.24
2017-04-01T06:14:27.501Z,43.15
2017-04-01T06:15:37.121Z,43.24
2017-04-01T06:16:47.045Z,43.24
2017-04-01T06:17:56.975Z,43.24
2017-04-01T06:19:06.901Z,43.24
2017-04-01T06:20:16.829Z,43.34
2017-04-01T06:21:26.764Z,43.34
2017-04-01T06:22:37.011Z,43.24
2017-04-01T06:23:46.940Z,43.24
2017-04-01T06:24:57.176Z,43.34
2017-04-01T06:26:07.110Z,43.44
2017-04-01T06:27:17.047Z,43.54
2017-04-01T06:28:27.286Z,43.34
2017-04-01T06:29:37.208Z,43.82
2017-04-01T06:30:47.549Z,43.63
2017-04-01T06:31:57.791Z,43.44
2017-04-01T06:33:08.031Z,43.54
2017-04-01T06:34:18.269Z,43.54
2017-04-01T06:35:28.197Z,43.73
2017-04-01T06:36:38.440Z,43.54
2017-04-01T06:37:48.680Z,43.34
2017-04-01T06:38:58.613Z,43.05
2017-04-01T06:40:08.854Z,43.05
2017-04-01T06:41:19.099Z,43.34
2017-04-01T06:42:29.057Z,43.24
2017-04-01T06:43:38.680Z,43.05
2017-04-01T06:44:48.294Z,43.15
2017-04-01T06:45:58.528Z,43.05
2017-04-01T06:47:08.768Z,43.24
2017-04-01T06:48:18.380Z,42.96
2017-04-01T06:49:28.621Z,43.34
2017-04-01T06:50:38.231Z,43.24
2017-04-01T06:51:48.478Z,43.54
2017-04-01T06:52:58.416Z,43.54
2017-04-01T06:54:08.655Z,43.34
2017-04-01T06:55:18.900Z,43.54
2017-04-01T06:56:29.143Z,43.44
2017-04-01T06:57:39.385Z,43.54
2017-04-01T06:58:49.622Z,43.44
2017-04-01T06:59:59.865Z,43.15
2017-04-01T07:01:10.116Z,43.34
2017-04-01T07:02:20.366Z,43.44
2017-04-01T07:03:30.297Z,43.54
2017-04-01T07:04:40.229Z,43.34
2017-04-01T07:05:50.471Z,43.44
2017-04-01T07:07:00.088Z,43.54
2017-04-01T07:08:10.340Z,43.34
2017-04-01T07:09:20.260Z,42.96
2017-04-01T07:10:30.500Z,42.96
2017-04-01T07:11:40.767Z,43.44
2017-04-01T07:12:51.005Z,43.34
2017-04-01T07:14:00.933Z,43.34
2017-04-01T07:15:10.867Z,43.44
2017-04-01T07:16:20.799Z,43.46
2017-04-01T07:17:31.042Z,42.97
2017-04-01T07:18:40.656Z,43.24
2017-04-01T07:19:50.895Z,43.15
2017-04-01T07:21:00.517Z,43.44
2017-04-01T07:22:10.141Z,43.54
2017-04-01T07:23:20.063Z,43.44
2017-04-01T07:24:29.995Z,43.05
2017-04-01T07:25:39.928Z,43.24
2017-04-01T07:26:49.551Z,43.44
2017-04-01T07:27:59.801Z,43.34
2017-04-01T07:29:09.728Z,43.54
2017-04-01T07:30:19.965Z,43.54
2017-04-01T07:31:29.893Z,42.96
2017-04-01T07:32:39.823Z,42.96
2017-04-01T07:33:49.754Z,42.57
2017-04-01T07:34:59.994Z,42.76
2017-04-01T07:36:09.922Z,43.24
2017-04-01T07:37:19.850Z,43.44
2017-04-01T07:38:29.164Z,43.05
2017-04-01T07:39:39.091Z,43.24
2017-04-01T07:40:49.025Z,42.96
2017-04-01T07:41:58.953Z,43.07
2017-04-01T07:43:09.197Z,43.55
2017-04-01T07:44:18.815Z,43.46
2017-04-01T07:45:28.740Z,43.07
2017-04-01T07:46:38.347Z,43.07
2017-04-01T07:47:48.583Z,43.46
2017-04-01T07:48:58.826Z,43.55
2017-04-01T07:50:08.759Z,43.17
2017-04-01T07:51:18.689Z,43.37
2017-04-01T07:52:28.307Z,43.46
2017-04-01T07:53:38.234Z,43.46
2017-04-01T07:54:47.531Z,43.27
2017-04-01T07:55:57.465Z,43.85
2017-04-01T07:57:07.706Z,43.55
2017-04-01T07:58:17.947Z,43.55
2017-04-01T07:59:28.189Z,43.55
2017-04-01T08:00:38.437Z,43.37
2017-04-01T08:01:48.051Z,43.46
2017-04-01T08:02:58.296Z,43.46
2017-04-01T08:04:08.241Z,43.75
2017-04-01T08:05:17.855Z,43.37
2017-04-01T08:06:27.473Z,43.65
2017-04-01T08:07:37.715Z,43.46
2017-04-01T08:08:47.951Z,43.65
2017-04-01T08:09:57.566Z,43.37
2017-04-01T08:11:07.180Z,43.37
2017-04-01T08:12:17.425Z,43.94
2017-04-01T08:13:27.035Z,43.65
2017-04-01T08:14:36.974Z,43.85
2017-04-01T08:15:47.218Z,43.85
2017-04-01T08:16:56.210Z,43.65
2017-04-01T08:18:06.447Z,43.46
2017-04-01T08:19:16.374Z,43.85
2017-04-01T08:20:26.300Z,43.65
2017-04-01T08:21:36.227Z,43.94
2017-04-01T08:22:46.158Z,43.85
2017-04-01T08:23:55.769Z,44.04
2017-04-01T08:25:05.697Z,43.75
2017-04-01T08:26:15.644Z,43.85
2017-04-01T08:27:25.890Z,43.85
2017-04-01T08:28:34.876Z,44.42
2017-04-01T08:29:45.116Z,44.42
2017-04-01T08:30:55.040Z,43.85
2017-04-01T08:32:04.970Z,43.94
2017-04-01T08:33:14.895Z,43.94
2017-04-01T08:34:24.822Z,44.32
2017-04-01T08:35:35.058Z,43.55
2017-04-01T08:36:45.303Z,43.94
2017-04-01T08:37:54.919Z,44.13
2017-04-01T08:39:04.854Z,44.04
2017-04-01T08:40:15.097Z,43.65
2017-04-01T08:41:25.333Z,44.13
2017-04-01T08:42:35.570Z,44.13
2017-04-01T08:43:45.495Z,43.85
2017-04-01T08:44:55.116Z,43.55
2017-04-01T08:46:05.046Z,43.94
2017-04-01T08:47:14.987Z,43.94
2017-04-01T08:48:24.912Z,43.65
2017-04-01T08:49:34.846Z,43.94
2017-04-01T08:50:45.084Z,43.75
2017-04-01T08:51:55.016Z,43.94
2017-04-01T08:53:04.636Z,43.94
2017-04-01T08:54:14.247Z,44.13
2017-04-01T08:55:24.179Z,44.13
2017-04-01T08:56:34.108Z,44.23
2017-04-01T08:57:44.351Z,44.04
2017-04-01T08:58:54.288Z,44.23
2017-04-01T09:00:04.570Z,44.23
2017-04-01T09:01:14.511Z,44.32
2017-04-01T09:02:24.457Z,44.13
2017-04-01T09:03:34.707Z,44.04
2017-04-01T09:04:44.946Z,44.23
2017-04-01T09:05:54.870Z,44.13
2017-04-01T09:07:04.489Z,44.23
2017-04-01T09:08:14.105Z,44.13
2017-04-01T09:09:23.404Z,44.23
2017-04-01T09:10:33.647Z,44.13
2017-04-01T09:11:43.887Z,44.23
2017-04-01T09:12:53.814Z,44.32
2017-04-01T09:14:03.740Z,44.42
2017-04-01T09:15:13.985Z,44.13
2017-04-01T09:16:24.234Z,44.23
2017-04-01T09:17:34.469Z,43.85
2017-04-01T09:18:44.715Z,44.32
2017-04-01T09:19:54.952Z,44.32
2017-04-01T09:21:05.194Z,44.52
2017-04-01T09:22:15.433Z,44.23
2017-04-01T09:23:25.678Z,44.42
2017-04-01T09:24:35.927Z,44.23
2017-04-01T09:25:46.170Z,44.32
2017-04-01T09:26:56.104Z,44.52
2017-04-01T09:28:05.717Z,44.23
2017-04-01T09:29:15.957Z,44.13
2017-04-01T09:30:25.885Z,44.23
2017-04-01T09:31:35.846Z,44.32
2017-04-01T09:32:45.815Z,44.32
2017-04-01T09:33:56.062Z,44.23
2017-04-01T09:35:05.989Z,44.04
2017-04-01T09:36:15.914Z,44.23
2017-04-01T09:37:25.842Z,44.23
2017-04-01T09:38:36.085Z,43.85
2017-04-01T09:39:46.327Z,44.13
2017-04-01T09:40:56.261Z,44.13
2017-04-01T09:42:06.505Z,44.23
2017-04-01T09:43:16.126Z,44.04
2017-04-01T09:44:26.054Z,44.23
2017-04-01T09:45:35.680Z,43.94
2017-04-01T09:46:45.617Z,44.23
2017-04-01T09:47:55.544Z,44.23
2017-04-01T09:49:05.468Z,44.23
2017-04-01T09:50:15.709Z,44.13
2017-04-01T09:51:25.642Z,44.13
2017-04-01T09:52:35.577Z,43.94
2017-04-01T09:53:45.821Z,44.23
2017-04-01T09:54:56.064Z,44.13
2017-04-01T09:56:05.673Z,44.13
2017-04-01T09:57:15.296Z,44.32
2017-04-01T09:58:25.271Z,44.23
2017-04-01T09:59:35.195Z,44.23
2017-04-01T10:00:45.436Z,44.23
2017-04-01T10:01:55.674Z,43.94
2017-04-01T10:03:05.914Z,44.32
2017-04-01T10:04:15.217Z,44.32
2017-04-01T10:05:24.831Z,44.13
2017-04-01T10:06:35.074Z,44.23
2017-04-01T10:07:45.003Z,44.23
2017-04-01T10:08:54.928Z,44.13
2017-04-01T10:10:04.875Z,44.13
2017-04-01T10:11:15.117Z,44.13
2017-04-01T10:12:24.423Z,44.52
2017-04-01T10:13:34.351Z,44.32
2017-04-01T10:14:43.960Z,44.32
2017-04-01T10:15:54.199Z,44.23
2017-04-01T10:17:04.130Z,44.04
2017-04-01T10:18:14.066Z,44.23
2017-04-01T10:19:24.308Z,44.23
2017-04-01T10:20:34.549Z,44.23
2017-04-01T10:21:44.170Z,44.13
2017-04-01T10:22:53.795Z,44.52
2017-04-01T10:24:03.408Z,44.42
2017-04-01T10:25:13.653Z,44.23
2017-04-01T10:26:23.899Z,44.23
2017-04-01T10:27:33.842Z,44.04
2017-04-01T10:28:43.769Z,44.04
2017-04-01T10:29:54.010Z,43.94
2017-04-01T10:31:03.934Z,43.94
2017-04-01T10:32:13.867Z,43.85
2017-04-01T10:33:24.111Z,44.13
2017-04-01T10:34:34.352Z,44.13
2017-04-01T10:35:44.600Z,43.94
2017-04-01T10:36:54.527Z,43.75
2017-04-01T10:38:04.763Z,43.94
2017-04-01T10:39:14.685Z,43.94
2017-04-01T10:40:24.935Z,44.13
2017-04-01T10:41:35.183Z,43.94
2017-04-01T10:42:45.110Z,43.94
2017-04-01T10:43:55.033Z,44.23
2017-04-01T10:45:04.964Z,44.04
2017-04-01T10:46:14.588Z,44.13
2017-04-01T10:47:24.206Z,44.04
2017-04-01T10:48:34.136Z,44.23
2017-04-01T10:49:44.374Z,43.94
2017-04-01T10:50:54.623Z,43.94
2017-04-01T10:52:04.240Z,44.04
2017-04-01T10:53:14.478Z,43.85
2017-04-01T10:54:24.089Z,44.04
2017-04-01T10:55:33.712Z,44.13
2017-04-01T10:56:43.954Z,43.94
2017-04-01T10:57:54.206Z,44.13
2017-04-01T10:59:04.445Z,44.13
2017-04-01T11:00:14.681Z,44.04
2017-04-01T11:01:24.605Z,44.04
2017-04-01T11:02:34.534Z,44.04
2017-04-01T11:03:44.465Z,43.94
2017-04-01T11:04:54.393Z,43.94
2017-04-01T11:06:04.641Z,44.04
2017-04-01T11:07:14.880Z,44.13
2017-04-01T11:08:24.499Z,43.94
2017-04-01T11:09:34.742Z,44.04
2017-04-01T11:10:44.986Z,44.23
2017-04-01T11:11:54.920Z,44.13
2017-04-01T11:13:04.850Z,44.04
2017-04-01T11:14:15.103Z,44.04
2017-04-01T11:15:25.026Z,43.94
2017-04-01T11:16:35.276Z,44.23
2017-04-01T11:17:45.522Z,44.04
2017-04-01T11:18:55.133Z,43.94
2017-04-01T11:20:05.056Z,44.04
2017-04-01T11:21:14.670Z,44.13
2017-04-01T11:22:24.598Z,44.04
2017-04-01T11:23:34.840Z,44.13
2017-04-01T11:24:45.087Z,44.04
2017-04-01T11:25:55.324Z,44.23
2017-04-01T11:27:05.587Z,44.23
2017-04-01T11:28:15.830Z,43.94
2017-04-01T11:29:25.758Z,43.85
2017-04-01T11:30:36.007Z,44.13
2017-04-01T11:31:46.343Z,44.13
2017-04-01T11:32:56.586Z,44.13
2017-04-01T11:34:06.513Z,44.13
2017-04-01T11:35:16.755Z,44.04
2017-04-01T11:36:26.674Z,44.04
2017-04-01T11:37:36.606Z,42.97
2017-04-01T11:38:46.223Z,38.16
2017-04-01T11:39:55.834Z,36.61
2017-04-01T11:41:05.760Z,37.31
2017-04-01T11:42:16.003Z,37.21
2017-04-01T11:43:26.240Z,36.06
2017-04-01T11:44:36.479Z,37.7
2017-04-01T11:45:46.408Z,35.77
2017-04-01T11:46:56.646Z,35.38
2017-04-01T11:48:06.579Z,36.06
2017-04-01T11:49:15.256Z,35.67
2017-04-01T11:50:25.179Z,37.12
2017-04-01T11:51:35.420Z,38.18
2017-04-01T11:52:45.664Z,38.95
2017-04-01T11:53:55.318Z,38.93
2017-04-01T11:55:05.262Z,39.79
2017-04-01T11:56:15.498Z,40.19
2017-04-01T11:57:25.435Z,41.05
2017-04-01T11:58:35.678Z,41.24
2017-04-01T11:59:45.921Z,41.05
2017-04-01T12:00:56.163Z,41.63
2017-04-01T12:02:06.091Z,41.92
2017-04-01T12:03:16.019Z,42.11
2017-04-01T12:04:25.946Z,42.3
2017-04-01T12:05:35.868Z,42.79
2017-04-01T12:06:46.114Z,42.59
2017-04-01T12:07:56.357Z,43.17
2017-04-01T12:09:06.610Z,42.69
2017-04-01T12:10:16.545Z,43.37
2017-04-01T12:11:26.483Z,43.55
2017-04-01T12:12:36.726Z,43.55
2017-04-01T12:13:46.649Z,43.07
2017-04-01T12:14:56.573Z,43.17
2017-04-01T12:16:06.506Z,43.55
2017-04-01T12:17:16.120Z,43.65
2017-04-01T12:18:25.734Z,43.85
2017-04-01T12:19:35.667Z,43.46
2017-04-01T12:20:45.994Z,43.94
2017-04-01T12:21:56.524Z,43.85
2017-04-01T12:23:07.278Z,44.13
2017-04-01T12:24:18.454Z,43.94
2017-04-01T12:25:29.250Z,44.81
2017-04-01T12:26:40.305Z,44.71
2017-04-01T12:27:51.321Z,44.83
2017-04-01T12:29:01.688Z,44.54
2017-04-01T12:30:12.420Z,44.64
2017-04-01T12:31:22.379Z,44.83
2017-04-01T12:32:33.105Z,44.93
2017-04-01T12:33:44.213Z,44.73
2017-04-01T12:34:54.917Z,44.64
2017-04-01T12:36:05.704Z,44.83
2017-04-01T12:37:16.406Z,44.35
2017-04-01T12:38:26.743Z,44.73
2017-04-01T12:39:37.457Z,45.31
2017-04-01T12:40:48.570Z,44.93
2017-04-01T12:41:58.981Z,44.83
2017-04-01T12:43:09.341Z,44.83
2017-04-01T12:44:19.697Z,44.93
2017-04-01T12:45:30.430Z,45.6
2017-04-01T12:46:40.775Z,45.6
2017-04-01T12:47:51.535Z,45.51
2017-04-01T12:49:02.256Z,45.51
2017-04-01T12:50:13.281Z,45.51
2017-04-01T12:51:23.987Z,44.54
2017-04-01T12:52:34.830Z,45.12
2017-04-01T12:53:45.440Z,45.31
2017-04-01T12:54:55.732Z,45.79
2017-04-01T12:56:06.039Z,45.6
2017-04-01T12:57:16.599Z,45.89
2017-04-01T12:58:26.788Z,45.03
2017-04-01T12:59:37.002Z,45.6
2017-04-01T13:00:47.111Z,45.7
2017-04-01T13:01:57.202Z,46.08
2017-04-01T13:03:07.543Z,45.41
2017-04-01T13:04:17.594Z,45.31
2017-04-01T13:05:27.667Z,45.21
2017-04-01T13:06:38.122Z,45.03
2017-04-01T13:07:48.141Z,45.7
2017-04-01T13:08:58.567Z,45.6
2017-04-01T13:10:08.842Z,45.6
2017-04-01T13:11:18.888Z,44.93
2017-04-01T13:12:29.255Z,45.21
2017-04-01T13:13:38.969Z,45.12
2017-04-01T13:14:49.314Z,45.6
2017-04-01T13:15:59.691Z,45.6
2017-04-01T13:17:10.156Z,45.99
2017-04-01T13:18:20.553Z,46.08
2017-04-01T13:19:30.573Z,46.18
2017-04-01T13:20:40.270Z,46.18
2017-04-01T13:21:50.327Z,45.99
2017-04-01T13:23:00.359Z,45.99
2017-04-01T13:24:10.376Z,46.56
2017-04-01T13:25:20.461Z,45.89
2017-04-01T13:26:30.451Z,46.56
2017-04-01T13:27:40.476Z,45.89
2017-04-01T13:28:50.819Z,46.56
2017-04-01T13:30:01.208Z,46.56
2017-04-01T13:31:11.272Z,46.56
2017-04-01T13:32:21.308Z,46.76
2017-04-01T13:33:31.295Z,46.37
2017-04-01T13:34:41.219Z,45.99
2017-04-01T13:35:51.151Z,46.47
2017-04-01T13:37:01.392Z,46.08
2017-04-01T13:38:11.317Z,46.76
2017-04-01T13:39:20.932Z,46.95
2017-04-01T13:40:30.231Z,46.47
2017-04-01T13:41:40.477Z,46.66
2017-04-01T13:42:50.712Z,46.47
2017-04-01T13:44:00.639Z,46.66
2017-04-01T13:45:10.884Z,46.18
2017-04-01T13:46:20.817Z,46.86
2017-04-01T13:47:31.053Z,45.89
2017-04-01T13:48:41.302Z,46.28
2017-04-01T13:49:50.923Z,46.08
2017-04-01T13:51:01.163Z,46.47
2017-04-01T13:52:11.676Z,46.08
2017-04-01T13:53:22.333Z,46.08
2017-04-01T13:54:33.058Z,45.6
2017-04-01T13:55:43.742Z,45.21
2017-04-01T13:56:54.828Z,46.08
2017-04-01T13:58:04.810Z,45.03
2017-04-01T13:59:15.585Z,45.89
2017-04-01T14:00:26.578Z,46.08
2017-04-01T14:01:37.219Z,45.89
2017-04-01T14:02:47.942Z,45.41
2017-04-01T14:03:58.292Z,46.08
2017-04-01T14:05:09.212Z,45.89
2017-04-01T14:06:19.273Z,45.79
2017-04-01T14:07:29.320Z,45.79
2017-04-01T14:08:39.693Z,45.7
2017-04-01T14:09:50.043Z,45.6
2017-04-01T14:10:59.983Z,45.79
2017-04-01T14:12:09.922Z,45.7
2017-04-01T14:13:19.851Z,45.7
2017-04-01T14:14:30.087Z,45.89
2017-04-01T14:15:40.024Z,45.89
2017-04-01T14:16:49.634Z,45.03
2017-04-01T14:17:59.873Z,45.41
2017-04-01T14:19:09.808Z,46.18
2017-04-01T14:20:19.423Z,45.99
2017-04-01T14:21:29.348Z,45.7
2017-04-01T14:22:39.278Z,45.79
2017-04-01T14:23:49.518Z,45.7
2017-04-01T14:24:59.762Z,45.03
2017-04-01T14:26:10.000Z,45.12
2017-04-01T14:27:19.616Z,45.6
2017-04-01T14:28:29.875Z,44.93
2017-04-01T14:29:40.114Z,45.89
2017-04-01T14:30:50.069Z,45.89
2017-04-01T14:31:59.682Z,45.79
2017-04-01T14:33:09.299Z,45.03
2017-04-01T14:34:19.227Z,44.83
2017-04-01T14:35:29.157Z,45.51
2017-04-01T14:36:39.084Z,45.12
2017-04-01T14:37:49.017Z,44.93
2017-04-01T14:38:59.262Z,45.41
2017-04-01T14:40:08.880Z,45.41
2017-04-01T14:41:18.810Z,45.99
2017-04-01T14:42:28.739Z,46.08
2017-04-01T14:43:38.675Z,45.6
2017-04-01T14:44:48.922Z,45.89
2017-04-01T14:45:58.849Z,44.83
2017-04-01T14:47:09.102Z,45.21
2017-04-01T14:48:19.344Z,45.99
2017-04-01T14:49:29.598Z,45.6
2017-04-01T14:50:39.843Z,45.03
2017-04-01T14:51:49.470Z,45.6
2017-04-01T14:52:59.714Z,45.6
2017-04-01T14:54:09.953Z,45.51
2017-04-01T14:55:20.203Z,45.6
2017-04-01T14:56:30.133Z,45.41
2017-04-01T14:57:40.058Z,45.21
2017-04-01T14:58:50.296Z,45.21
2017-04-01T15:00:00.228Z,44.73
2017-04-01T15:01:10.470Z,45.51
2017-04-01T15:02:20.715Z,45.51
2017-04-01T15:03:30.956Z,45.6
2017-04-01T15:04:40.569Z,45.6